Time;durP1;ratioP1;P1;durP2;ratioP2;P2;SDS_P1;SDS_P2;PMS_P1;PMS_P2;Temp;Humidity;BMP_temperature;BMP_pressure;BME280_temperature;BME280_humidity;BME280_pressure;Samples;Min_cycle;Max_cycle;Signal;HPM_P1;HPM_P2
2021/11/06 00:01:54;;;;;;;9.35;7.30;;;;;;;6.59;76.05;101076.13;4968903;28;106069;-67
2021/11/06 00:04:19;;;;;;;11.50;6.93;;;;;;;6.57;76.12;101074.56;4969216;28;108172;-66
2021/11/06 10:37:58;;;;;;;2.47;1.00;;;;;;;22.85;28.35;101284.94;4985107;28;106622;-65
2021/11/06 10:40:23;;;;;;;3.30;0.63;;;;;;;23.63;26.70;101280.69;4984541;28;106047;-65
2021/11/06 10:42:52;;;;;;;3.40;1.10;;;;;;;20.86;28.73;101284.09;4984270;28;106212;-66
2021/11/06 10:45:21;;;;;;;2.57;0.87;;;;;;;18.66;31.44;101287.03;4983741;28;106367;-66
2021/11/06 10:47:56;;;;;;;3.33;0.90;;;;;;;17.17;33.69;101286.56;4982872;28;106209;-66
2021/11/06 10:50:43;;;;;;;5.70;1.00;;;;;;;16.00;35.84;101276.25;4984282;28;106509;-73
2021/11/06 10:53:09;;;;;;;3.35;1.00;;;;;;;15.62;36.69;101276.97;4984195;28;106414;-64
2021/11/06 10:55:41;;;;;;;3.47;1.23;;;;;;;15.06;37.76;101263.66;4983408;28;106286;-68
2021/11/06 10:58:22;;;;;;;2.80;0.98;;;;;;;16.67;37.23;101271.97;4983243;28;107220;-69
2021/11/06 11:00:50;;;;;;;2.33;0.70;;;;;;;16.28;36.35;101273.00;4983796;28;106081;-65
2021/11/06 11:03:25;;;;;;;3.65;0.98;;;;;;;18.55;34.81;101269.53;4974497;28;106307;-65
2021/11/06 11:05:51;;;;;;;1.45;0.65;;;;;;;20.33;31.28;101254.38;4975866;28;105933;-72
2021/11/06 11:08:17;;;;;;;1.17;0.68;;;;;;;22.91;28.38;101247.88;4971586;28;106039;-66
2021/11/06 11:10:44;;;;;;;1.55;0.73;;;;;;;21.68;27.93;101256.47;4969969;28;106051;-66
2021/11/06 11:13:22;;;;;;;2.90;0.90;;;;;;;19.28;30.64;101264.56;4972756;28;106238;-69
2021/11/06 11:15:52;;;;;;;2.85;1.45;;;;;;;18.94;32.65;101268.13;4971984;28;106900;-67
2021/11/06 11:18:35;;;;;;;1.48;0.70;;;;;;;21.34;29.91;101260.38;4908869;28;106222;-66
2021/11/06 11:21:31;;;;;;;2.85;0.60;;;;;;;24.64;27.50;101252.69;4955872;28;106437;-67
2021/11/06 11:24:06;;;;;;;0.75;0.57;;;;;;;28.27;23.11;101239.47;4956107;28;106496;-70
2021/11/06 11:26:37;;;;;;;1.92;0.70;;;;;;;30.38;19.48;101250.19;4951739;28;105956;-73
2021/11/06 11:29:05;;;;;;;1.67;0.70;;;;;;;31.16;18.54;101242.53;4956079;28;106442;-66
2021/11/06 11:31:31;;;;;;;4.63;0.70;;;;;;;32.04;17.52;101251.81;4950879;28;106003;-64
2021/11/06 11:33:57;;;;;;;3.58;0.93;;;;;;;32.88;16.43;101249.88;4948125;28;106173;-64
2021/11/06 11:36:26;;;;;;;1.20;0.63;;;;;;;33.10;16.63;101245.72;4944753;28;106059;-66
2021/11/06 11:38:53;;;;;;;2.00;0.90;;;;;;;33.55;16.31;101235.13;4945004;28;106244;-70
2021/11/06 11:41:43;;;;;;;2.03;1.05;;;;;;;35.02;15.45;101244.88;4945996;28;105844;-67
2021/11/06 11:44:27;;;;;;;7.40;2.65;;;;;;;35.24;15.09;101238.56;4948615;28;106220;-70
2021/11/06 11:47:06;;;;;;;3.40;1.10;;;;;;;36.37;14.57;101232.19;4964511;28;105972;-73
2021/11/06 11:49:37;;;;;;;6.72;1.75;;;;;;;36.75;14.44;101238.00;4939228;28;106393;-73
2021/11/06 11:52:34;;;;;;;3.53;1.05;;;;;;;37.59;13.58;101223.22;4930652;28;106537;-73
2021/11/06 11:54:59;;;;;;;5.00;1.58;;;;;;;38.74;13.04;101233.66;4925630;28;106047;-71
2021/11/06 11:57:25;;;;;;;1.85;0.90;;;;;;;38.21;12.81;101240.59;4930722;28;105917;-71
2021/11/06 11:59:51;;;;;;;3.40;1.00;;;;;;;38.31;12.96;101215.19;4930728;28;106367;-73
2021/11/06 12:02:31;;;;;;;2.75;0.95;;;;;;;38.42;12.48;101229.56;4931181;28;106370;-73
2021/11/06 12:05:14;;;;;;;;;;;;;;;38.86;12.90;101220.97;4931509;28;106735;-71
2021/11/06 12:07:41;;;;;;;2.75;0.82;;;;;;;38.04;12.59;101222.81;4931405;28;107877;-71
2021/11/06 12:10:24;;;;;;;3.45;1.00;;;;;;;36.89;12.41;101221.25;4931521;28;105994;-72
2021/11/06 12:12:50;;;;;;;5.82;1.15;;;;;;;36.22;12.85;101214.00;4932474;28;105886;-72
2021/11/06 12:15:15;;;;;;;2.15;0.82;;;;;;;34.90;13.27;101215.00;4931943;28;106213;-72
2021/11/06 12:17:41;;;;;;;3.47;0.80;;;;;;;34.07;13.75;101222.09;4931490;28;105938;-71
2021/11/06 12:20:24;;;;;;;1.83;0.82;;;;;;;33.64;14.23;101205.72;4931827;28;105866;-70
2021/11/06 12:22:50;;;;;;;2.28;1.10;;;;;;;34.94;13.52;101210.47;4932218;28;105951;-71
2021/11/06 12:25:16;;;;;;;1.42;0.70;;;;;;;36.17;12.50;101208.56;4931876;28;106124;-70
2021/11/06 12:27:51;;;;;;;2.35;1.00;;;;;;;36.42;12.44;101207.88;4930982;28;106003;-71
2021/11/06 12:30:24;;;;;;;1.55;0.80;;;;;;;33.60;13.86;101201.06;4931502;28;105826;-71
2021/11/06 12:32:49;;;;;;;2.30;0.77;;;;;;;34.46;14.01;101203.44;4931906;28;105890;-70
2021/11/06 12:35:24;;;;;;;11.27;7.53;;;;;;;35.00;13.21;101197.34;4931408;28;106190;-71
2021/11/06 12:37:52;;;;;;;3.53;1.40;;;;;;;35.34;13.11;101196.81;4931306;28;107331;-71
2021/11/06 12:40:19;;;;;;;3.65;1.33;;;;;;;32.94;14.62;101201.75;4931206;28;106038;-71
2021/11/06 12:43:03;;;;;;;3.53;1.17;;;;;;;29.57;16.86;101196.91;4931782;28;105857;-71
2021/11/06 12:45:29;;;;;;;4.32;0.68;;;;;;;29.24;17.56;101193.56;4931452;28;106160;-71
2021/11/06 12:48:15;;;;;;;1.48;0.73;;;;;;;31.35;16.11;101190.38;4936047;28;106178;-71
2021/11/06 12:50:47;;;;;;;3.10;0.80;;;;;;;34.05;14.30;101191.19;4939578;28;105976;-72
2021/11/06 12:53:26;;;;;;;3.33;1.00;;;;;;;35.82;13.33;101183.44;4940438;28;105822;-70
2021/11/06 12:56:19;;;;;;;2.27;0.80;;;;;;;35.15;13.08;101187.84;4940371;28;106100;-72
2021/11/06 12:58:47;;;;;;;2.72;1.10;;;;;;;32.81;15.41;101186.78;4939668;28;107332;-72
2021/11/06 13:01:27;;;;;;;2.05;0.90;;;;;;;31.95;15.92;101186.63;4939970;28;106108;-71
2021/11/06 13:03:53;;;;;;;2.20;1.00;;;;;;;32.60;15.35;101188.13;4937937;28;105793;-72
2021/11/06 13:06:25;;;;;;;3.15;1.05;;;;;;;30.27;16.40;101188.91;4939796;28;106296;-72
2021/11/06 13:09:04;;;;;;;6.07;3.47;;;;;;;28.26;18.24;101179.47;4939172;28;106825;-72
2021/11/06 13:11:48;;;;;;;3.13;1.08;;;;;;;26.09;20.19;101179.06;4939761;28;105888;-73
2021/11/06 13:14:48;;;;;;;3.42;1.10;;;;;;;24.44;21.69;101173.22;4938830;28;106533;-71
2021/11/06 13:17:20;;;;;;;3.65;1.70;;;;;;;23.57;22.63;101178.25;4937272;28;105841;-70
2021/11/06 13:19:50;;;;;;;4.57;2.10;;;;;;;22.61;23.71;101170.72;4938760;28;106462;-72
2021/11/06 13:22:40;;;;;;;5.43;2.50;;;;;;;24.18;23.02;101167.25;4939938;28;106062;-71
2021/11/06 13:25:11;;;;;;;3.78;2.03;;;;;;;25.93;21.12;101161.56;4936720;28;106142;-71
2021/11/06 13:27:46;;;;;;;4.10;1.40;;;;;;;28.05;18.93;101162.06;4931022;28;106125;-73
2021/11/06 13:30:29;;;;;;;2.53;0.75;;;;;;;29.33;17.51;101170.00;4930319;28;107030;-72
2021/11/06 13:33:01;;;;;;;4.15;1.85;;;;;;;29.93;16.75;101162.06;4928375;28;106361;-72
2021/11/06 13:35:35;;;;;;;5.75;2.78;;;;;;;30.52;16.43;101154.22;4928547;28;106131;-72
2021/11/06 13:38:09;;;;;;;5.10;2.50;;;;;;;31.07;16.07;101153.41;4928712;28;106087;-72
2021/11/06 13:40:49;;;;;;;7.22;2.10;;;;;;;31.31;15.98;101157.09;4928522;28;106081;-74
2021/11/06 13:43:30;;;;;;;5.22;1.75;;;;;;;31.84;15.77;101147.31;4928730;28;106424;-72
2021/11/06 13:46:11;;;;;;;4.20;1.85;;;;;;;32.05;15.29;101150.69;4929337;28;106193;-73
2021/11/06 13:48:41;;;;;;;2.90;1.10;;;;;;;31.86;15.38;101154.19;4930386;28;106682;-72
2021/11/06 13:51:12;;;;;;;3.05;1.20;;;;;;;31.42;15.80;101149.59;4928612;28;108173;-72
2021/11/06 13:53:38;;;;;;;3.63;1.50;;;;;;;31.62;15.76;101147.78;4930347;28;105933;-72
2021/11/06 13:56:04;;;;;;;4.95;1.60;;;;;;;31.54;15.83;101146.47;4931402;28;105833;-72
2021/11/06 13:58:29;;;;;;;3.80;2.10;;;;;;;31.93;15.87;101144.75;4930549;28;105866;-73
2021/11/06 14:00:55;;;;;;;2.15;1.17;;;;;;;32.16;15.44;101137.63;4930061;28;105868;-73
2021/11/06 14:03:21;;;;;;;2.78;1.10;;;;;;;32.18;15.53;101138.19;4929986;28;105891;-73
2021/11/06 14:05:48;;;;;;;3.83;1.40;;;;;;;31.80;15.81;101135.25;4931004;28;105971;-74
2021/11/06 14:08:15;;;;;;;4.90;1.75;;;;;;;31.44;16.04;101138.28;4930415;28;105837;-74
2021/11/06 14:10:41;;;;;;;2.90;1.23;;;;;;;31.14;16.06;101140.16;4929832;28;106128;-74
2021/11/06 14:13:09;;;;;;;1.52;1.10;;;;;;;30.08;17.19;101135.69;4930071;28;106194;-74
2021/11/06 14:15:42;;;;;;;2.25;1.10;;;;;;;27.24;19.01;101140.03;4930677;28;105877;-72
2021/11/06 14:18:22;;;;;;;5.15;2.00;;;;;;;24.39;21.73;101137.75;4929841;28;106173;-72
2021/11/06 14:20:53;;;;;;;3.15;1.20;;;;;;;22.18;23.78;101138.19;4929750;28;106880;-73
2021/11/06 14:23:30;;;;;;;4.63;1.48;;;;;;;20.33;25.44;101143.44;4929256;28;105998;-73
2021/11/06 14:26:19;;;;;;;3.55;1.33;;;;;;;18.93;27.31;101140.41;4930551;28;106327;-72
2021/11/06 14:28:51;;;;;;;3.63;1.40;;;;;;;17.80;28.66;101140.53;4929749;28;105912;-72
2021/11/06 14:31:36;;;;;;;2.85;1.83;;;;;;;16.90;30.22;101132.81;4929497;28;106908;-73
2021/11/06 14:34:23;;;;;;;3.88;1.75;;;;;;;16.12;31.45;101143.09;4929026;28;107351;-73
2021/11/06 14:36:52;;;;;;;3.97;1.85;;;;;;;15.54;32.00;101142.75;4930237;28;106521;-71
2021/11/06 14:39:18;;;;;;;4.80;1.90;;;;;;;15.02;32.90;101130.84;4928125;28;106014;-72
2021/11/06 14:41:51;;;;;;;6.28;2.30;;;;;;;14.60;33.62;101134.69;4929490;28;106083;-72
2021/11/06 14:44:21;;;;;;;5.53;2.38;;;;;;;14.21;34.50;101139.00;4929647;28;106048;-72
2021/11/06 14:46:50;;;;;;;5.22;2.10;;;;;;;13.89;35.19;101138.06;4930039;28;106020;-71
2021/11/06 14:49:19;;;;;;;5.47;2.23;;;;;;;13.62;35.77;101139.25;4929423;28;106185;-73
2021/11/06 14:52:00;;;;;;;3.42;2.00;;;;;;;13.40;36.23;101138.88;4929286;28;107060;-75
2021/11/06 14:54:49;;;;;;;6.50;2.60;;;;;;;13.10;37.41;101135.78;4928640;28;106517;-72
2021/11/06 14:57:49;;;;;;;5.10;2.70;;;;;;;12.79;37.73;101132.84;4929635;28;106019;-69
2021/11/06 15:00:19;;;;;;;3.72;2.20;;;;;;;12.54;38.40;101138.09;4928993;28;106066;-68
2021/11/06 15:03:06;;;;;;;6.55;3.22;;;;;;;12.36;38.95;101143.53;4929023;28;105878;-67
2021/11/06 15:05:35;;;;;;;21.48;13.90;;;;;;;12.20;39.26;101136.25;4928379;28;106417;-70
2021/11/06 15:08:11;;;;;;;5.93;3.75;;;;;;;12.18;38.94;101133.75;4929440;28;105975;-70
2021/11/06 15:10:38;;;;;;;6.13;2.63;;;;;;;11.93;38.94;101126.53;4928659;28;106152;-74
2021/11/06 15:13:05;;;;;;;5.68;2.65;;;;;;;11.56;40.42;101127.56;4928663;28;106589;-71
2021/11/06 15:15:31;;;;;;;4.57;2.60;;;;;;;11.25;40.95;101125.28;4928349;28;106605;-69
2021/11/06 15:18:00;;;;;;;5.93;4.55;;;;;;;10.97;41.63;101118.16;4929363;28;105901;-75
2021/11/06 15:20:27;;;;;;;6.88;3.67;;;;;;;10.74;41.96;101125.75;4928674;28;106202;-76
2021/11/06 15:22:55;;;;;;;8.20;5.22;;;;;;;10.56;42.66;101127.53;4929476;28;106141;-75
2021/11/06 15:25:21;;;;;;;9.18;3.35;;;;;;;10.38;42.80;101125.63;4938359;28;106764;-66
2021/11/06 15:27:46;;;;;;;5.68;3.22;;;;;;;10.22;43.36;101128.03;4950705;28;106845;-65
2021/11/06 15:30:12;;;;;;;8.65;3.10;;;;;;;10.08;43.70;101129.34;4950158;28;106118;-66
2021/11/06 15:32:40;;;;;;;26.48;13.15;;;;;;;9.97;44.12;101131.16;4949723;28;106358;-66
2021/11/06 15:35:08;;;;;;;10.02;5.00;;;;;;;9.86;44.30;101133.19;4949594;28;106005;-68
2021/11/06 15:37:34;;;;;;;9.60;4.93;;;;;;;9.71;44.81;101130.94;4949900;28;106470;-67
2021/11/06 15:40:00;;;;;;;9.00;4.95;;;;;;;9.55;45.10;101122.69;4949921;28;106228;-67
2021/11/06 15:42:26;;;;;;;9.52;5.07;;;;;;;9.39;45.15;101132.06;4949495;28;106414;-71
2021/11/06 15:44:51;;;;;;;9.20;4.43;;;;;;;9.25;46.04;101125.34;4949813;28;107209;-69
2021/11/06 15:47:16;;;;;;;10.32;5.00;;;;;;;9.15;46.46;101130.63;4950387;28;106099;-69
2021/11/06 15:49:42;;;;;;;8.50;4.97;;;;;;;9.06;46.46;101128.81;4947966;28;106085;-71
2021/11/06 15:52:10;;;;;;;10.05;4.97;;;;;;;8.96;46.88;101130.59;4949722;28;107236;-71
2021/11/06 15:54:37;;;;;;;11.55;7.13;;;;;;;8.86;47.08;101127.94;4943268;28;106127;-69
2021/11/06 15:57:03;;;;;;;13.68;6.90;;;;;;;8.75;47.50;101123.56;4938577;28;106188;-76
2021/11/06 15:59:29;;;;;;;15.20;7.65;;;;;;;8.64;48.02;101124.50;4936090;28;106205;-78
2021/11/06 16:01:55;;;;;;;14.52;8.18;;;;;;;8.56;48.41;101123.50;4939828;28;106040;-68
2021/11/06 16:04:20;;;;;;;12.57;7.40;;;;;;;8.49;47.91;101125.00;4941657;28;105916;-77
2021/11/06 16:06:46;;;;;;;18.70;7.30;;;;;;;8.43;48.50;101126.34;4940443;28;105999;-77
2021/11/06 16:09:12;;;;;;;16.65;7.60;;;;;;;8.35;48.99;101126.16;4941685;28;106142;-77
2021/11/06 16:11:37;;;;;;;9.70;5.93;;;;;;;8.26;48.70;101133.97;4940041;28;106392;-77
2021/11/06 16:14:07;;;;;;;16.65;7.60;;;;;;;8.19;49.37;101137.25;4941311;28;106642;-73
2021/11/06 16:16:36;;;;;;;19.40;10.30;;;;;;;8.07;49.55;101134.69;4941873;28;106185;-75
2021/11/06 16:19:03;;;;;;;17.55;9.70;;;;;;;7.93;49.73;101127.91;4948049;28;106028;-75
2021/11/06 16:21:29;;;;;;;17.83;9.57;;;;;;;7.83;50.66;101134.13;4950801;28;105978;-75
2021/11/06 16:23:55;;;;;;;17.00;9.60;;;;;;;7.72;50.43;101125.28;4950280;28;106145;-74
2021/11/06 16:26:22;;;;;;;15.93;8.70;;;;;;;7.61;50.57;101127.94;4951357;28;106511;-78
2021/11/06 16:28:50;;;;;;;15.98;8.85;;;;;;;7.51;50.87;101129.72;4950555;28;106317;-74
2021/11/06 16:31:17;;;;;;;17.67;10.18;;;;;;;7.42;50.95;101123.34;4950859;28;105936;-72
2021/11/06 16:33:44;;;;;;;13.00;8.05;;;;;;;7.34;52.04;101117.81;4950000;28;106342;-71
2021/11/06 16:36:11;;;;;;;16.98;9.02;;;;;;;7.23;52.06;101124.00;4950976;28;106121;-76
2021/11/06 16:38:37;;;;;;;15.27;8.77;;;;;;;7.15;52.16;101121.13;4950431;28;105742;-72
2021/11/06 16:41:02;;;;;;;17.15;9.93;;;;;;;7.03;52.02;101123.00;4950009;28;106098;-70
2021/11/06 16:43:29;;;;;;;24.23;14.40;;;;;;;6.94;52.94;101121.91;4950090;28;105863;-74
2021/11/06 16:45:54;;;;;;;29.40;13.90;;;;;;;6.85;52.62;101123.50;4950805;28;105834;-72
2021/11/06 16:48:20;;;;;;;24.15;13.30;;;;;;;6.79;53.70;101124.00;4950133;28;108176;-72
2021/11/06 16:50:46;;;;;;;23.67;12.52;;;;;;;6.72;53.73;101117.50;4940155;28;106129;-76
2021/11/06 16:53:13;;;;;;;22.17;12.63;;;;;;;6.66;54.08;101112.72;4938246;28;106392;-73
2021/11/06 16:55:38;;;;;;;23.88;10.05;;;;;;;6.59;54.00;101113.19;4941532;28;105986;-73
2021/11/06 16:58:05;;;;;;;18.70;8.30;;;;;;;6.56;54.23;101115.22;4940077;28;106482;-78
2021/11/06 17:00:31;;;;;;;13.10;6.75;;;;;;;6.51;54.92;101118.25;4939000;28;106006;-76
2021/11/06 17:02:57;;;;;;;12.80;7.43;;;;;;;6.48;55.07;101123.78;4938432;28;105903;-76
2021/11/06 17:05:22;;;;;;;13.15;7.43;;;;;;;6.43;55.21;101116.19;4944831;28;105890;-75
2021/11/06 17:07:51;;;;;;;13.30;7.45;;;;;;;6.39;55.63;101109.47;4938925;28;106255;-70
2021/11/06 17:12:44;;;;;;;16.75;8.07;;;;;;;6.29;55.50;101103.22;4929407;28;106030;-68
2021/11/06 17:15:10;;;;;;;17.65;9.02;;;;;;;6.24;56.24;101105.38;4928697;28;106125;-68
2021/11/06 17:17:35;;;;;;;20.88;8.77;;;;;;;6.25;56.63;101107.91;4928108;28;106034;-67
2021/11/06 17:20:01;;;;;;;12.52;8.82;;;;;;;6.25;56.70;101099.97;4928139;28;106459;-71
2021/11/06 17:22:26;;;;;;;18.00;9.60;;;;;;;6.21;56.32;101101.16;4927889;28;106407;-67
2021/11/06 17:24:51;;;;;;;17.33;10.00;;;;;;;6.16;56.46;101095.38;4929061;28;106613;-69
2021/11/06 17:27:17;;;;;;;20.55;9.13;;;;;;;6.14;56.92;101094.66;4927881;28;106145;-74
2021/11/06 17:29:43;;;;;;;19.80;9.85;;;;;;;6.13;57.28;101094.78;4930153;28;106024;-77
2021/11/06 17:32:09;;;;;;;18.45;10.15;;;;;;;6.06;57.44;101100.53;4929789;28;106055;-68
2021/11/06 17:34:36;;;;;;;18.17;10.75;;;;;;;6.04;57.96;101109.56;4930797;28;105955;-77
2021/11/06 17:37:02;;;;;;;18.98;9.70;;;;;;;6.01;58.30;101100.03;4929695;28;106215;-69
2021/11/06 17:39:27;;;;;;;22.25;11.85;;;;;;;5.94;58.25;101096.16;4929937;28;105940;-73
2021/11/06 17:41:53;;;;;;;19.70;11.23;;;;;;;5.88;58.50;101100.13;4929922;28;106303;-70
2021/11/06 17:44:19;;;;;;;22.23;12.15;;;;;;;5.80;58.70;101101.69;4930115;28;106084;-72
2021/11/06 17:46:45;;;;;;;19.55;10.45;;;;;;;5.76;59.12;101099.25;4929428;28;106161;-68
2021/11/06 17:49:14;;;;;;;25.55;11.77;;;;;;;5.73;59.63;101099.50;4929497;28;105919;-63
2021/11/06 17:51:42;;;;;;;22.23;12.82;;;;;;;5.74;60.09;101098.53;4929729;28;106699;-66
2021/11/06 17:54:11;;;;;;;24.23;12.80;;;;;;;5.68;60.13;101093.69;4930047;28;105988;-65
2021/11/06 17:56:37;;;;;;;25.50;13.43;;;;;;;5.59;59.90;101089.97;4929804;28;106012;-66
2021/11/06 17:59:03;;;;;;;20.75;13.00;;;;;;;5.55;60.71;101083.22;4929535;28;106482;-63
2021/11/06 18:01:32;;;;;;;24.23;13.52;;;;;;;5.50;60.63;101081.91;4929543;28;106462;-64
2021/11/06 18:03:58;;;;;;;20.88;12.57;;;;;;;5.43;60.65;101084.97;4929939;28;106100;-70
2021/11/06 18:06:24;;;;;;;24.20;12.25;;;;;;;5.36;60.82;101077.66;4929326;28;106224;-73
2021/11/06 18:08:49;;;;;;;23.00;13.02;;;;;;;5.28;61.13;101086.13;4929217;28;106759;-72
2021/11/06 18:11:15;;;;;;;24.10;13.68;;;;;;;5.23;61.31;101077.69;4929480;28;105956;-74
2021/11/06 18:13:40;;;;;;;20.98;12.15;;;;;;;5.18;61.24;101079.84;4930174;28;105870;-74
2021/11/06 18:16:06;;;;;;;24.42;13.60;;;;;;;5.11;61.56;101078.59;4929796;28;105893;-64
2021/11/06 18:18:33;;;;;;;24.90;13.88;;;;;;;5.03;61.56;101081.78;4929905;28;106730;-63
2021/11/06 18:20:59;;;;;;;20.55;13.20;;;;;;;4.95;61.75;101074.47;4929160;28;106651;-75
2021/11/06 18:23:24;;;;;;;20.35;12.93;;;;;;;4.92;62.24;101072.00;4930283;28;106942;-72
2021/11/06 18:25:50;;;;;;;15.23;9.27;;;;;;;4.91;62.58;101073.00;4929181;28;105959;-66
2021/11/06 18:28:16;;;;;;;27.15;14.40;;;;;;;4.86;62.70;101075.94;4931551;28;106553;-69
2021/11/06 18:30:41;;;;;;;23.00;11.68;;;;;;;4.84;63.20;101066.44;4928781;28;105955;-63
2021/11/06 18:33:07;;;;;;;26.73;14.20;;;;;;;4.79;63.21;101066.78;4929409;28;105887;-76
2021/11/06 18:35:33;;;;;;;25.48;14.20;;;;;;;4.74;63.34;101061.88;4928470;28;106135;-67
2021/11/06 18:37:59;;;;;;;23.70;14.13;;;;;;;4.70;62.91;101063.03;4929187;28;106072;-63
2021/11/06 18:40:25;;;;;;;26.23;14.38;;;;;;;4.64;63.55;101047.63;4928688;28;106174;-66
2021/11/06 18:42:52;;;;;;;25.40;14.30;;;;;;;4.62;63.48;101052.19;4929758;28;106132;-73
2021/11/06 18:45:18;;;;;;;25.75;14.07;;;;;;;4.56;63.97;101049.97;4929300;28;106334;-72
2021/11/06 18:47:49;;;;;;;21.00;13.82;;;;;;;4.52;63.76;101053.78;4928733;28;106147;-67
2021/11/06 18:50:15;;;;;;;24.23;14.32;;;;;;;4.47;64.10;101053.28;4928911;28;106226;-63
2021/11/06 18:52:40;;;;;;;26.92;14.48;;;;;;;4.42;63.97;101044.88;4929754;28;105825;-66
2021/11/06 18:55:07;;;;;;;26.25;14.57;;;;;;;4.40;64.04;101053.72;4929316;28;106162;-78
2021/11/06 18:57:32;;;;;;;22.00;14.02;;;;;;;4.38;64.61;101045.06;4928837;28;105774;-77
2021/11/06 18:59:58;;;;;;;26.83;14.68;;;;;;;4.37;64.50;101039.91;4932517;28;105872;-73
2021/11/06 19:02:23;;;;;;;28.00;14.27;;;;;;;4.36;64.62;101040.84;4932780;28;106097;-70
2021/11/06 19:04:51;;;;;;;30.17;15.88;;;;;;;4.34;64.71;101038.31;4932577;28;106118;-73
2021/11/06 19:07:19;;;;;;;23.27;14.02;;;;;;;4.30;65.00;101036.00;4931965;28;106693;-67
2021/11/06 19:09:45;;;;;;;27.48;15.20;;;;;;;4.26;65.04;101035.38;4931952;28;106076;-65
2021/11/06 19:12:12;;;;;;;26.65;15.15;;;;;;;4.27;65.60;101031.78;4932256;28;106242;-64
2021/11/06 19:14:38;;;;;;;31.95;17.20;;;;;;;4.29;65.61;101036.97;4931778;28;106228;-63
2021/11/06 19:17:03;;;;;;;31.60;17.23;;;;;;;4.31;65.72;101025.34;4931290;28;106517;-65
2021/11/06 19:19:30;;;;;;;31.23;16.95;;;;;;;4.32;65.73;101023.53;4931821;28;106471;-63
2021/11/06 19:21:56;;;;;;;32.17;17.23;;;;;;;4.30;65.89;101020.19;4932399;28;106422;-70
2021/11/06 19:24:27;;;;;;;32.53;18.42;;;;;;;4.28;65.96;101015.03;4931783;28;106234;-71
2021/11/06 19:26:56;;;;;;;30.60;17.17;;;;;;;4.27;65.96;101018.59;4931707;28;106773;-70
2021/11/06 19:29:22;;;;;;;66.50;39.45;;;;;;;4.27;65.83;101013.34;4931522;28;105962;-70
2021/11/06 19:31:47;;;;;;;29.60;17.40;;;;;;;4.24;66.26;101011.75;4932508;28;106007;-67
2021/11/06 19:34:13;;;;;;;31.38;18.33;;;;;;;4.23;65.83;101009.22;4932014;28;106407;-71
2021/11/06 19:36:38;;;;;;;29.05;17.38;;;;;;;4.22;66.30;101003.13;4931374;28;105951;-71
2021/11/06 19:39:04;;;;;;;29.83;16.92;;;;;;;4.21;66.19;101003.19;4931838;28;106009;-71
2021/11/06 19:41:29;;;;;;;31.50;17.00;;;;;;;4.20;66.54;100997.09;4932639;28;105989;-71
2021/11/06 19:43:55;;;;;;;32.20;16.38;;;;;;;4.20;66.38;100997.09;4931883;28;106165;-70
2021/11/06 19:46:20;;;;;;;34.63;17.25;;;;;;;4.20;66.34;100993.63;4931750;28;106019;-68
2021/11/06 19:48:45;;;;;;;30.58;17.25;;;;;;;4.19;66.55;100991.94;4931554;28;105858;-70
2021/11/06 19:51:11;;;;;;;30.10;15.00;;;;;;;4.19;67.28;100986.66;4936422;28;106044;-69
2021/11/06 19:53:36;;;;;;;32.42;17.38;;;;;;;4.24;67.09;100989.81;4949800;28;106195;-69
2021/11/06 19:56:02;;;;;;;31.75;17.40;;;;;;;4.24;67.07;100988.00;4949613;28;106650;-70
